Avalon — PBSF — position and weather

sailwx.info

Track history (hours):
 
Tides and Currents Weather Stations Pressure Air Temp Water Temp Dewpoint Dewpoint Depression Visibility Wind Speed Wind Dir Waves Ship Positions

Avalon

Last reported at 2017-Nov-20 00:30 UTC. Time now 2017-Nov-20 21:36 UTC.
Position N 53°20' E 006°60'.

Length 89 m; draft 5 m.

Type: Cargo ship. MMSI: 246578000.

Date/timePositionNaut miles runAvg speedWind from/ knotsBaromVisibWave heightAir tempDewpointWater temp
2017-Nov-20 00:30N 53°20' E 006°60'5 9.5
2017-Nov-20 00:00N 53°24' E 006°57'5 9.9
2017-Nov-19 23:30N 53°28' E 006°51'84 7.9
2017-Nov-19 12:52N 53°12' E 004°33'2 6.2
2017-Nov-19 12:30N 53°10' E 004°31'3 6.2
2017-Nov-19 12:00N 53°07' E 004°28'3 6.3
2017-Nov-19 11:30N 53°04' E 004°26'3 5.9
2017-Nov-19 11:00N 53°02' E 004°23'3 5.9
2017-Nov-19 10:29N 52°59' E 004°21'3 5.2
2017-Nov-19 09:59N 52°57' E 004°19'3 5.6
2017-Nov-19 09:30N 52°54' E 004°17'3 5.7
2017-Nov-19 08:58N 52°52' E 004°14'3 5.1
2017-Nov-19 08:24N 52°49' E 004°11'8 5.4
2017-Nov-19 06:56N 52°43' E 004°05'3 7.1
2017-Nov-19 06:30N 52°40' E 004°01'4 7.6
2017-Nov-19 05:59N 52°38' E 003°56'4 7.9
2017-Nov-19 05:30N 52°35' E 003°52'5 8.4
2017-Nov-19 04:57N 52°32' E 003°46'76 8.2
2017-Nov-18 19:34N 51°35' E 002°23'2 7.7
2017-Nov-18 19:17N 51°33' E 002°21'2 7.6
2017-Nov-18 18:58N 51°31' E 002°19'4 7.9
2017-Nov-18 18:30N 51°28' E 002°15'4 8.5
2017-Nov-18 18:00N 51°25' E 002°12'4 8.9
2017-Nov-18 17:30N 51°21' E 002°08'5 9.3
2017-Nov-18 17:00N 51°17' E 002°05'5 9.2
2017-Nov-18 16:30N 51°13' E 002°00'5 9.8
2017-Nov-18 16:00N 51°10' E 001°54'5 9.9
2017-Nov-18 15:30N 51°07' E 001°48'510.3
2017-Nov-18 15:00N 51°03' E 001°42'510.6
2017-Nov-18 14:30N 50°60' E 001°36'611.1
2017-Nov-18 14:00N 50°56' E 001°30'5610.6
2017-Nov-18 08:45N 50°24' E 000°17'312.5
2017-Nov-18 08:29N 50°23' E 000°12'612.5
2017-Nov-18 08:00N 50°22' E 000°03'612.2
2017-Nov-18 07:30N 50°21' W 000°07'612.2
2017-Nov-18 07:00N 50°21' W 000°17'3910.1
2017-Nov-18 03:10N 50°18' W 001°17'1 7.7
2017-Nov-18 02:59N 50°18' W 001°19'4 7.6
2017-Nov-18 02:30N 50°18' W 001°25'4 7.2
2017-Nov-18 02:00N 50°17' W 001°30'4 7.0
2017-Nov-18 01:29N 50°17' W 001°36'3 6.9
2017-Nov-18 01:00N 50°17' W 001°41'4 7.0
2017-Nov-18 00:30N 50°17' W 001°47'4 7.5
2017-Nov-17 23:59N 50°16' W 001°53'15 9.2
2017-Nov-17 22:18N 50°15' W 002°17'410.7
2017-Nov-17 21:58N 50°14' W 002°22'611.1
2017-Nov-17 21:28N 50°13' W 002°31'511.3
2017-Nov-17 21:00N 50°12' W 002°39'611.5
2017-Nov-17 20:30N 50°11' W 002°48'611.4
2017-Nov-17 20:00N 50°10' W 002°57'611.5
2017-Nov-17 19:30N 50°09' W 003°05'611.5
2017-Nov-17 19:00N 50°08' W 003°14'611.4
2017-Nov-17 18:30N 50°07' W 003°23'611.4
2017-Nov-17 18:00N 50°06' W 003°32'611.5
2017-Nov-17 17:30N 50°05' W 003°41'811.4
2017-Nov-17 16:50N 50°04' W 003°52'411.1
2017-Nov-17 16:27N 50°03' W 003°59'510.9
2017-Nov-17 16:00N 50°02' W 004°06'510.8
2017-Nov-17 15:30N 50°01' W 004°15'510.6
2017-Nov-17 15:00N 50°00' W 004°23'510.4
2017-Nov-17 14:29N 49°59' W 004°31'510.2
2017-Nov-17 14:00N 49°58' W 004°38'510.0
2017-Nov-17 13:30N 49°57' W 004°46'5 9.9
2017-Nov-17 13:00N 49°56' W 004°53'5 9.6
2017-Nov-17 12:30N 49°55' W 005°01'5 9.3
2017-Nov-17 12:00N 49°55' W 005°08'12 8.4
2017-Nov-17 10:34N 49°55' W 005°27'1 8.6
2017-Nov-17 10:30N 49°55' W 005°28'6 8.6
2017-Nov-17 09:48N 49°55' W 005°37'3 8.8
2017-Nov-17 09:30N 49°55' W 005°41'12 9.0
2017-Nov-17 08:07N 49°56' W 006°00'211.1
2017-Nov-17 07:57N 49°58' W 006°00'711.2
2017-Nov-17 07:21N 50°05' W 006°01'411.1
2017-Nov-17 07:00N 50°09' W 006°01'511.0
2017-Nov-17 06:30N 50°14' W 006°02'87 9.8
2017-Nov-16 21:38N 51°18' W 007°35'1 9.7
2017-Nov-16 21:29N 51°19' W 007°36'5 9.8
2017-Nov-16 21:00N 51°23' W 007°42'5 9.8
2017-Nov-16 20:30N 51°26' W 007°47'510.0
2017-Nov-16 20:00N 51°30' W 007°53'510.1
2017-Nov-16 19:30N 51°33' W 007°59'510.1
2017-Nov-16 19:00N 51°37' W 008°04'510.3
2017-Nov-16 18:30N 51°40' W 008°10'510.0
2017-Nov-16 18:00N 51°44' W 008°15'510.6
2017-Nov-16 17:30N 51°49' W 008°16'3 5.6
2017-Nov-16 17:00N 51°51' W 008°20'4 8.0
2017-Nov-16 16:30N 51°54' W 008°25'2 3.5
2017-Nov-16 16:00N 51°54' W 008°27'0 0.0
2017-Nov-16 15:30N 51°54' W 008°27'0 0.0
2017-Nov-16 14:54N 51°54' W 008°27'0 0.0
2017-Nov-16 14:30N 51°54' W 008°27'0 0.0
2017-Nov-16 14:00N 51°54' W 008°27'0 0.0
2017-Nov-16 13:30N 51°54' W 008°27'0 0.0
2017-Nov-16 13:00N 51°54' W 008°27'0 0.0
2017-Nov-16 12:30N 51°54' W 008°27'0 0.0
2017-Nov-16 12:00N 51°54' W 008°27'0 0.0
2017-Nov-16 11:30N 51°54' W 008°27'0 0.0
2017-Nov-16 11:00N 51°54' W 008°27'0 0.0
2017-Nov-16 10:30N 51°54' W 008°27'0 0.0
2017-Nov-16 10:00N 51°54' W 008°27'0 0.0
2017-Nov-16 09:30N 51°54' W 008°27'0 0.0
2017-Nov-16 09:00N 51°54' W 008°27'0 0.0
2017-Nov-16 08:30N 51°54' W 008°27'0 0.0
2017-Nov-16 08:00N 51°54' W 008°27'0 0.0
2017-Nov-16 07:30N 51°54' W 008°27'0 0.0
2017-Nov-16 07:00N 51°54' W 008°27'0 0.0
2017-Nov-16 06:30N 51°54' W 008°27'0 0.0
2017-Nov-16 05:57N 51°54' W 008°27'0 0.0
2017-Nov-16 05:30N 51°54' W 008°27'0 0.0
2017-Nov-16 05:00N 51°54' W 008°27'0 0.0
2017-Nov-16 04:30N 51°54' W 008°27'0 0.0
2017-Nov-16 04:00N 51°54' W 008°27'0 0.0
2017-Nov-16 03:30N 51°54' W 008°27'0 0.0
2017-Nov-16 02:57N 51°54' W 008°27'0 0.0
2017-Nov-16 02:30N 51°54' W 008°27'0 0.0
2017-Nov-16 01:57N 51°54' W 008°27'0 0.0
2017-Nov-16 01:30N 51°54' W 008°27'0 0.0
2017-Nov-16 01:00N 51°54' W 008°27'0 0.0
2017-Nov-16 00:27N 51°54' W 008°27'0 0.0
2017-Nov-16 00:00N 51°54' W 008°27'0 0.0
2017-Nov-15 23:30N 51°54' W 008°27'0 0.0
2017-Nov-15 23:00N 51°54' W 008°27'0 0.0
2017-Nov-15 22:30N 51°54' W 008°27'0 0.0
2017-Nov-15 22:00N 51°54' W 008°27'0 0.0
2017-Nov-15 21:30N 51°54' W 008°27'0 0.0
2017-Nov-15 20:57N 51°54' W 008°27'0 0.0
2017-Nov-15 20:30N 51°54' W 008°27'0 0.0
2017-Nov-15 19:57N 51°54' W 008°27'0 0.0
2017-Nov-15 19:30N 51°54' W 008°27'0 0.0
2017-Nov-15 19:00N 51°54' W 008°27'0 0.0
2017-Nov-15 18:30N 51°54' W 008°27'0 0.0
2017-Nov-15 18:00N 51°54' W 008°27'0 0.0
2017-Nov-15 17:30N 51°54' W 008°27'0 0.0
2017-Nov-15 17:00N 51°54' W 008°27'0 0.0
2017-Nov-15 16:30N 51°54' W 008°27'0 0.0
2017-Nov-15 16:00N 51°54' W 008°27'0 0.0
2017-Nov-15 15:30N 51°54' W 008°27'0 0.0
2017-Nov-15 15:00N 51°54' W 008°27'0 0.0
2017-Nov-15 14:30N 51°54' W 008°27'0 0.0
2017-Nov-15 14:00N 51°54' W 008°27'0 0.0
2017-Nov-15 13:27N 51°54' W 008°27'0 0.0
2017-Nov-15 13:00N 51°54' W 008°27'0 0.0
2017-Nov-15 12:30N 51°54' W 008°27'0 0.0
2017-Nov-15 12:00N 51°54' W 008°27'0 0.0
2017-Nov-15 11:30N 51°54' W 008°27'0 0.0
2017-Nov-15 11:00N 51°54' W 008°27'0 0.0
2017-Nov-15 10:30N 51°54' W 008°27'0 0.0
2017-Nov-15 10:00N 51°54' W 008°27'0 0.0
2017-Nov-15 09:30N 51°54' W 008°27'0 0.0
2017-Nov-15 09:00N 51°54' W 008°27'0 0.0
2017-Nov-15 08:30N 51°54' W 008°27'0 0.0
2017-Nov-15 08:00N 51°54' W 008°27'0 0.0
2017-Nov-15 07:30N 51°54' W 008°27'0 0.0
2017-Nov-15 07:00N 51°54' W 008°27'0 0.0
2017-Nov-15 06:30N 51°54' W 008°27'0 0.0
2017-Nov-15 06:00N 51°54' W 008°27'0 0.0
2017-Nov-15 05:30N 51°54' W 008°27'0 0.0
2017-Nov-15 05:00N 51°54' W 008°27'0 0.0
2017-Nov-15 04:30N 51°54' W 008°27'0 0.0
2017-Nov-15 03:57N 51°54' W 008°27'0 0.0
2017-Nov-15 03:27N 51°54' W 008°27'0 0.0
2017-Nov-15 03:00N 51°54' W 008°27'0 0.0
2017-Nov-15 02:30N 51°54' W 008°27'0 0.0
2017-Nov-15 02:00N 51°54' W 008°27'0 0.0
2017-Nov-15 01:30N 51°54' W 008°27'0 0.0
2017-Nov-15 01:00N 51°54' W 008°27'0 0.0
2017-Nov-15 00:30N 51°54' W 008°27'0 0.4
2017-Nov-15 00:00N 51°54' W 008°27'3 6.3
2017-Nov-14 23:31N 51°53' W 008°22'3 6.8
2017-Nov-14 23:01N 51°50' W 008°19'2 3.9
2017-Nov-14 22:30N 51°50' W 008°16'0 0.1
2017-Nov-14 22:00N 51°50' W 008°16'0 0.0
2017-Nov-14 21:30N 51°50' W 008°16'0 0.0
2017-Nov-14 21:00N 51°50' W 008°16'0 0.0
2017-Nov-14 20:30N 51°50' W 008°16'1 2.0
2017-Nov-14 20:00N 51°51' W 008°17'2 3.7
2017-Nov-14 19:28N 51°52' W 008°20'0 0.0
2017-Nov-14 18:58N 51°52' W 008°20'0 0.0
2017-Nov-14 18:28N 51°52' W 008°20'0 0.0
2017-Nov-14 17:59N 51°52' W 008°20'0 0.0
2017-Nov-14 17:28N 51°52' W 008°20'0 0.0
2017-Nov-14 16:58N 51°52' W 008°20'0 0.0
2017-Nov-14 16:28N 51°52' W 008°20'0 0.0
2017-Nov-14 15:58N 51°52' W 008°20'0 0.0
2017-Nov-14 15:28N 51°52' W 008°20'0 0.0
2017-Nov-14 14:58N 51°52' W 008°20'0 0.0
2017-Nov-14 14:28N 51°52' W 008°20'0 0.0
2017-Nov-14 13:58N 51°52' W 008°20'0 0.0
2017-Nov-14 13:28N 51°52' W 008°20'0 0.0
2017-Nov-14 12:58N 51°52' W 008°20'0 0.0
2017-Nov-14 12:28N 51°52' W 008°20'0 0.0
2017-Nov-14 11:58N 51°52' W 008°20'0 0.0
2017-Nov-14 11:28N 51°52' W 008°20'0 0.0
2017-Nov-14 10:58N 51°52' W 008°20'0 0.0
2017-Nov-14 10:28N 51°52' W 008°20'0 0.0
2017-Nov-14 09:58N 51°52' W 008°20'0 0.0
2017-Nov-14 09:28N 51°52' W 008°20'0 0.0
2017-Nov-14 08:58N 51°52' W 008°20'0 0.0
2017-Nov-14 08:28N 51°52' W 008°20'0 0.0
2017-Nov-14 07:58N 51°52' W 008°20'0 0.0
2017-Nov-14 07:28N 51°52' W 008°20'0 0.0
2017-Nov-14 06:58N 51°52' W 008°20'0 0.0
2017-Nov-14 06:28N 51°52' W 008°20'0 0.0
2017-Nov-14 05:58N 51°52' W 008°20'0 0.0
2017-Nov-14 05:28N 51°52' W 008°20'0 0.0
2017-Nov-14 04:58N 51°52' W 008°20'0 0.0
2017-Nov-14 04:28N 51°52' W 008°20'0 0.0
2017-Nov-14 03:58N 51°52' W 008°20'0 0.0
2017-Nov-14 03:28N 51°52' W 008°20'0 0.0
2017-Nov-14 02:58N 51°52' W 008°20'0 0.0
2017-Nov-14 02:28N 51°52' W 008°20'0 0.0
2017-Nov-14 01:58N 51°52' W 008°20'0 0.0
2017-Nov-14 01:28N 51°52' W 008°20'0 0.0
2017-Nov-14 00:58N 51°52' W 008°20'0 0.0
2017-Nov-14 00:28N 51°52' W 008°20'0 0.0
2017-Nov-13 23:58N 51°52' W 008°20'0 0.0
2017-Nov-13 23:28N 51°52' W 008°20'0 0.0
2017-Nov-13 22:58N 51°52' W 008°20'0 0.0
2017-Nov-13 22:28N 51°52' W 008°20'0 0.0
2017-Nov-13 21:58N 51°52' W 008°20'3 0.1
2017-Nov-13 01:59N 51°50' W 008°16'0 0.1
2017-Nov-13 01:29N 51°50' W 008°16'0 0.1
2017-Nov-13 00:59N 51°50' W 008°16'0 0.0
2017-Nov-13 00:29N 51°50' W 008°16'0 0.0
2017-Nov-12 23:59N 51°50' W 008°16'0 0.0
2017-Nov-12 23:29N 51°50' W 008°16'0 0.0
2017-Nov-12 22:59N 51°50' W 008°16'0 0.0
2017-Nov-12 22:29N 51°50' W 008°16'0 0.0
2017-Nov-12 21:59N 51°50' W 008°16'0 0.0
2017-Nov-12 21:29N 51°50' W 008°16'0 0.0
2017-Nov-12 21:00N 51°50' W 008°16'2 3.8
2017-Nov-12 20:30N 51°49' W 008°16'5 9.9
2017-Nov-12 20:01N 51°44' W 008°15'5 9.6
2017-Nov-12 19:31N 51°40' W 008°09'5 9.7
2017-Nov-12 19:00N 51°37' W 008°04'5 9.6
2017-Nov-12 18:31N 51°34' W 007°58'5 9.1
2017-Nov-12 18:00N 51°30' W 007°53'4 8.7
2017-Nov-12 17:30N 51°27' W 007°48'4 8.3
2017-Nov-12 17:00N 51°24' W 007°43'4 8.0
2017-Nov-12 16:30N 51°22' W 007°39'85 6.5
2017-Nov-12 03:28N 50°23' W 006°00'3 7.0
2017-Nov-12 03:01N 50°21' W 005°56'3 6.1
2017-Nov-12 02:30N 50°18' W 005°54'3 6.6
2017-Nov-12 02:00N 50°15' W 005°54'3 6.5
2017-Nov-12 01:28N 50°12' W 005°54'3 7.0
2017-Nov-12 01:00N 50°08' W 005°54'5 6.3
2017-Nov-12 00:16N 50°04' W 005°53'2 6.6
2017-Nov-12 00:00N 50°02' W 005°52'15 5.6
2017-Nov-11 21:24N 49°57' W 005°31'14 6.8
2017-Nov-11 19:21N 49°55' W 005°10'2 6.9
2017-Nov-11 19:00N 49°55' W 005°06'4 7.6
2017-Nov-11 18:29N 49°55' W 004°60'4 7.8
2017-Nov-11 17:56N 49°56' W 004°53'4 8.2
2017-Nov-11 17:30N 49°57' W 004°48'4 8.2
2017-Nov-11 17:01N 49°58' W 004°42'4 8.0
2017-Nov-11 16:31N 49°59' W 004°36'4 7.9
2017-Nov-11 16:01N 49°59' W 004°29'4 7.8
2017-Nov-11 15:31N 49°60' W 004°23'4 7.6
2017-Nov-11 15:00N 50°01' W 004°18'4 7.4
2017-Nov-11 14:29N 50°01' W 004°12'3 7.1
2017-Nov-11 14:00N 50°02' W 004°06'3 6.8
2017-Nov-11 13:31N 50°03' W 004°01'3 6.7
2017-Nov-11 13:00N 50°03' W 003°56'3 6.4
2017-Nov-11 12:30N 50°04' W 003°51'3 6.3
2017-Nov-11 12:00N 50°05' W 003°47'3 5.8
2017-Nov-11 11:31N 50°05' W 003°42'3 5.8
2017-Nov-11 11:00N 50°06' W 003°38'3 5.9
2017-Nov-11 10:30N 50°06' W 003°33'3 6.0
2017-Nov-11 10:00N 50°07' W 003°29'3 5.9
2017-Nov-11 09:30N 50°07' W 003°24'3 6.1
2017-Nov-11 09:00N 50°08' W 003°19'3 6.2
2017-Nov-11 08:30N 50°08' W 003°15'3 6.2
2017-Nov-11 08:00N 50°09' W 003°10'3 6.8
2017-Nov-11 07:30N 50°10' W 003°05'3 7.0
2017-Nov-11 07:00N 50°10' W 002°59'4 7.1
2017-Nov-11 06:31N 50°11' W 002°54'4 7.2
2017-Nov-11 06:00N 50°12' W 002°49'7 6.4
2017-Nov-11 04:58N 50°13' W 002°38'84 7.6
2017-Nov-10 17:57N 50°28' W 000°30'510.6
2017-Nov-10 17:31N 50°29' W 000°22'510.3
2017-Nov-10 17:01N 50°30' W 000°14'5 9.8
2017-Nov-10 16:31N 50°31' W 000°07'5 9.3
2017-Nov-10 16:00N 50°32' E 000°00'4 8.7
2017-Nov-10 15:31N 50°33' E 000°07'4 8.2
2017-Nov-10 15:01N 50°34' E 000°13'4 7.4
2017-Nov-10 14:31N 50°35' E 000°19'4 7.5
2017-Nov-10 14:01N 50°36' E 000°24'4 7.5
2017-Nov-10 13:31N 50°37' E 000°30'4 7.7
2017-Nov-10 13:01N 50°39' E 000°36'4 8.1
2017-Nov-10 12:30N 50°41' E 000°41'4 8.6
2017-Nov-10 12:01N 50°44' E 000°46'5 9.3
2017-Nov-10 11:31N 50°46' E 000°52'5 9.7
2017-Nov-10 11:00N 50°49' E 000°59'710.3
2017-Nov-10 10:19N 50°54' E 001°08'410.5
2017-Nov-10 09:59N 50°56' E 001°12'510.5
2017-Nov-10 09:31N 50°59' E 001°18'510.3
2017-Nov-10 09:01N 51°03' E 001°24'5 9.4
2017-Nov-10 08:30N 51°06' E 001°30'4 8.9
2017-Nov-10 08:01N 51°08' E 001°35'4 8.4
2017-Nov-10 07:30N 51°11' E 001°40'4 8.2
2017-Nov-10 07:01N 51°14' E 001°45'4 8.2
2017-Nov-10 06:30N 51°17' E 001°49'4 7.9
2017-Nov-10 06:00N 51°21' E 001°52'4 8.0
2017-Nov-10 05:30N 51°24' E 001°56'4 8.0
2017-Nov-10 05:01N 51°27' E 002°00'4 8.3
2017-Nov-10 04:30N 51°30' E 002°04'4 8.8
2017-Nov-10 04:00N 51°34' E 002°09'6 9.2
2017-Nov-10 03:22N 51°38' E 002°15'4 9.8
2017-Nov-10 03:00N 51°41' E 002°19'  
Track history (hours):
 
Tides and Currents Weather Stations Pressure Air Temp Water Temp Dewpoint Dewpoint Depression Visibility Wind Speed Wind Dir Waves Ship Positions

Avalon

Last reported at 2017-Nov-20 00:30 UTC. Time now 2017-Nov-20 21:36 UTC.
Position N 53°20' E 006°60'.

Length 89 m; draft 5 m.

Type: Cargo ship. MMSI: 246578000.

Date/timePositionNaut miles runAvg speedWind from/ knotsBaromVisibWave heightAir tempDewpointWater temp
2017-Nov-20 00:30N 53°20' E 006°60'5 9.5
2017-Nov-20 00:00N 53°24' E 006°57'5 9.9
2017-Nov-19 23:30N 53°28' E 006°51'84 7.9
2017-Nov-19 12:52N 53°12' E 004°33'2 6.2
2017-Nov-19 12:30N 53°10' E 004°31'3 6.2
2017-Nov-19 12:00N 53°07' E 004°28'3 6.3
2017-Nov-19 11:30N 53°04' E 004°26'3 5.9
2017-Nov-19 11:00N 53°02' E 004°23'3 5.9
2017-Nov-19 10:29N 52°59' E 004°21'3 5.2
2017-Nov-19 09:59N 52°57' E 004°19'3 5.6
2017-Nov-19 09:30N 52°54' E 004°17'3 5.7
2017-Nov-19 08:58N 52°52' E 004°14'3 5.1
2017-Nov-19 08:24N 52°49' E 004°11'8 5.4
2017-Nov-19 06:56N 52°43' E 004°05'3 7.1
2017-Nov-19 06:30N 52°40' E 004°01'4 7.6
2017-Nov-19 05:59N 52°38' E 003°56'4 7.9
2017-Nov-19 05:30N 52°35' E 003°52'5 8.4
2017-Nov-19 04:57N 52°32' E 003°46'76 8.2
2017-Nov-18 19:34N 51°35' E 002°23'2 7.7
2017-Nov-18 19:17N 51°33' E 002°21'2 7.6
2017-Nov-18 18:58N 51°31' E 002°19'4 7.9
2017-Nov-18 18:30N 51°28' E 002°15'4 8.5
2017-Nov-18 18:00N 51°25' E 002°12'4 8.9
2017-Nov-18 17:30N 51°21' E 002°08'5 9.3
2017-Nov-18 17:00N 51°17' E 002°05'5 9.2
2017-Nov-18 16:30N 51°13' E 002°00'5 9.8
2017-Nov-18 16:00N 51°10' E 001°54'5 9.9
2017-Nov-18 15:30N 51°07' E 001°48'510.3
2017-Nov-18 15:00N 51°03' E 001°42'510.6
2017-Nov-18 14:30N 50°60' E 001°36'611.1
2017-Nov-18 14:00N 50°56' E 001°30'5610.6
2017-Nov-18 08:45N 50°24' E 000°17'312.5
2017-Nov-18 08:29N 50°23' E 000°12'612.5
2017-Nov-18 08:00N 50°22' E 000°03'612.2
2017-Nov-18 07:30N 50°21' W 000°07'612.2
2017-Nov-18 07:00N 50°21' W 000°17'3910.1
2017-Nov-18 03:10N 50°18' W 001°17'1 7.7
2017-Nov-18 02:59N 50°18' W 001°19'4 7.6
2017-Nov-18 02:30N 50°18' W 001°25'4 7.2
2017-Nov-18 02:00N 50°17' W 001°30'4 7.0
2017-Nov-18 01:29N 50°17' W 001°36'3 6.9
2017-Nov-18 01:00N 50°17' W 001°41'4 7.0
2017-Nov-18 00:30N 50°17' W 001°47'4 7.5
2017-Nov-17 23:59N 50°16' W 001°53'15 9.2
2017-Nov-17 22:18N 50°15' W 002°17'410.7
2017-Nov-17 21:58N 50°14' W 002°22'611.1
2017-Nov-17 21:28N 50°13' W 002°31'511.3
2017-Nov-17 21:00N 50°12' W 002°39'611.5
2017-Nov-17 20:30N 50°11' W 002°48'611.4
2017-Nov-17 20:00N 50°10' W 002°57'611.5
2017-Nov-17 19:30N 50°09' W 003°05'611.5
2017-Nov-17 19:00N 50°08' W 003°14'611.4
2017-Nov-17 18:30N 50°07' W 003°23'611.4
2017-Nov-17 18:00N 50°06' W 003°32'611.5
2017-Nov-17 17:30N 50°05' W 003°41'811.4
2017-Nov-17 16:50N 50°04' W 003°52'411.1
2017-Nov-17 16:27N 50°03' W 003°59'510.9
2017-Nov-17 16:00N 50°02' W 004°06'510.8
2017-Nov-17 15:30N 50°01' W 004°15'510.6
2017-Nov-17 15:00N 50°00' W 004°23'510.4
2017-Nov-17 14:29N 49°59' W 004°31'510.2
2017-Nov-17 14:00N 49°58' W 004°38'510.0
2017-Nov-17 13:30N 49°57' W 004°46'5 9.9
2017-Nov-17 13:00N 49°56' W 004°53'5 9.6
2017-Nov-17 12:30N 49°55' W 005°01'5 9.3
2017-Nov-17 12:00N 49°55' W 005°08'12 8.4
2017-Nov-17 10:34N 49°55' W 005°27'1 8.6
2017-Nov-17 10:30N 49°55' W 005°28'6 8.6
2017-Nov-17 09:48N 49°55' W 005°37'3 8.8
2017-Nov-17 09:30N 49°55' W 005°41'12 9.0
2017-Nov-17 08:07N 49°56' W 006°00'211.1
2017-Nov-17 07:57N 49°58' W 006°00'711.2
2017-Nov-17 07:21N 50°05' W 006°01'411.1
2017-Nov-17 07:00N 50°09' W 006°01'511.0
2017-Nov-17 06:30N 50°14' W 006°02'87 9.8
2017-Nov-16 21:38N 51°18' W 007°35'1 9.7
2017-Nov-16 21:29N 51°19' W 007°36'5 9.8
2017-Nov-16 21:00N 51°23' W 007°42'5 9.8
2017-Nov-16 20:30N 51°26' W 007°47'510.0
2017-Nov-16 20:00N 51°30' W 007°53'510.1
2017-Nov-16 19:30N 51°33' W 007°59'510.1
2017-Nov-16 19:00N 51°37' W 008°04'510.3
2017-Nov-16 18:30N 51°40' W 008°10'510.0
2017-Nov-16 18:00N 51°44' W 008°15'510.6
2017-Nov-16 17:30N 51°49' W 008°16'3 5.6
2017-Nov-16 17:00N 51°51' W 008°20'4 8.0
2017-Nov-16 16:30N 51°54' W 008°25'2 3.5
2017-Nov-16 16:00N 51°54' W 008°27'0 0.0
2017-Nov-16 15:30N 51°54' W 008°27'0 0.0
2017-Nov-16 14:54N 51°54' W 008°27'0 0.0
2017-Nov-16 14:30N 51°54' W 008°27'0 0.0
2017-Nov-16 14:00N 51°54' W 008°27'0 0.0
2017-Nov-16 13:30N 51°54' W 008°27'0 0.0
2017-Nov-16 13:00N 51°54' W 008°27'0 0.0
2017-Nov-16 12:30N 51°54' W 008°27'0 0.0
2017-Nov-16 12:00N 51°54' W 008°27'0 0.0
2017-Nov-16 11:30N 51°54' W 008°27'0 0.0
2017-Nov-16 11:00N 51°54' W 008°27'0 0.0
2017-Nov-16 10:30N 51°54' W 008°27'0 0.0
2017-Nov-16 10:00N 51°54' W 008°27'0 0.0
2017-Nov-16 09:30N 51°54' W 008°27'0 0.0
2017-Nov-16 09:00N 51°54' W 008°27'0 0.0
2017-Nov-16 08:30N 51°54' W 008°27'0 0.0
2017-Nov-16 08:00N 51°54' W 008°27'0 0.0
2017-Nov-16 07:30N 51°54' W 008°27'0 0.0
2017-Nov-16 07:00N 51°54' W 008°27'0 0.0
2017-Nov-16 06:30N 51°54' W 008°27'0 0.0
2017-Nov-16 05:57N 51°54' W 008°27'0 0.0
2017-Nov-16 05:30N 51°54' W 008°27'0 0.0
2017-Nov-16 05:00N 51°54' W 008°27'0 0.0
2017-Nov-16 04:30N 51°54' W 008°27'0 0.0
2017-Nov-16 04:00N 51°54' W 008°27'0 0.0
2017-Nov-16 03:30N 51°54' W 008°27'0 0.0
2017-Nov-16 02:57N 51°54' W 008°27'0 0.0
2017-Nov-16 02:30N 51°54' W 008°27'0 0.0
2017-Nov-16 01:57N 51°54' W 008°27'0 0.0
2017-Nov-16 01:30N 51°54' W 008°27'0 0.0
2017-Nov-16 01:00N 51°54' W 008°27'0 0.0
2017-Nov-16 00:27N 51°54' W 008°27'0 0.0
2017-Nov-16 00:00N 51°54' W 008°27'0 0.0
2017-Nov-15 23:30N 51°54' W 008°27'0 0.0
2017-Nov-15 23:00N 51°54' W 008°27'0 0.0
2017-Nov-15 22:30N 51°54' W 008°27'0 0.0
2017-Nov-15 22:00N 51°54' W 008°27'0 0.0
2017-Nov-15 21:30N 51°54' W 008°27'0 0.0
2017-Nov-15 20:57N 51°54' W 008°27'0 0.0
2017-Nov-15 20:30N 51°54' W 008°27'0 0.0
2017-Nov-15 19:57N 51°54' W 008°27'0 0.0
2017-Nov-15 19:30N 51°54' W 008°27'0 0.0
2017-Nov-15 19:00N 51°54' W 008°27'0 0.0
2017-Nov-15 18:30N 51°54' W 008°27'0 0.0
2017-Nov-15 18:00N 51°54' W 008°27'0 0.0
2017-Nov-15 17:30N 51°54' W 008°27'0 0.0
2017-Nov-15 17:00N 51°54' W 008°27'0 0.0
2017-Nov-15 16:30N 51°54' W 008°27'0 0.0
2017-Nov-15 16:00N 51°54' W 008°27'0 0.0
2017-Nov-15 15:30N 51°54' W 008°27'0 0.0
2017-Nov-15 15:00N 51°54' W 008°27'0 0.0
2017-Nov-15 14:30N 51°54' W 008°27'0 0.0
2017-Nov-15 14:00N 51°54' W 008°27'0 0.0
2017-Nov-15 13:27N 51°54' W 008°27'0 0.0
2017-Nov-15 13:00N 51°54' W 008°27'0 0.0
2017-Nov-15 12:30N 51°54' W 008°27'0 0.0
2017-Nov-15 12:00N 51°54' W 008°27'0 0.0
2017-Nov-15 11:30N 51°54' W 008°27'0 0.0
2017-Nov-15 11:00N 51°54' W 008°27'0 0.0
2017-Nov-15 10:30N 51°54' W 008°27'0 0.0
2017-Nov-15 10:00N 51°54' W 008°27'0 0.0
2017-Nov-15 09:30N 51°54' W 008°27'0 0.0
2017-Nov-15 09:00N 51°54' W 008°27'0 0.0
2017-Nov-15 08:30N 51°54' W 008°27'0 0.0
2017-Nov-15 08:00N 51°54' W 008°27'0 0.0
2017-Nov-15 07:30N 51°54' W 008°27'0 0.0
2017-Nov-15 07:00N 51°54' W 008°27'0 0.0
2017-Nov-15 06:30N 51°54' W 008°27'0 0.0
2017-Nov-15 06:00N 51°54' W 008°27'0 0.0
2017-Nov-15 05:30N 51°54' W 008°27'0 0.0
2017-Nov-15 05:00N 51°54' W 008°27'0 0.0
2017-Nov-15 04:30N 51°54' W 008°27'0 0.0
2017-Nov-15 03:57N 51°54' W 008°27'0 0.0
2017-Nov-15 03:27N 51°54' W 008°27'0 0.0
2017-Nov-15 03:00N 51°54' W 008°27'0 0.0
2017-Nov-15 02:30N 51°54' W 008°27'0 0.0
2017-Nov-15 02:00N 51°54' W 008°27'0 0.0
2017-Nov-15 01:30N 51°54' W 008°27'0 0.0
2017-Nov-15 01:00N 51°54' W 008°27'0 0.0
2017-Nov-15 00:30N 51°54' W 008°27'0 0.4
2017-Nov-15 00:00N 51°54' W 008°27'3 6.3
2017-Nov-14 23:31N 51°53' W 008°22'3 6.8
2017-Nov-14 23:01N 51°50' W 008°19'2 3.9
2017-Nov-14 22:30N 51°50' W 008°16'0 0.1
2017-Nov-14 22:00N 51°50' W 008°16'0 0.0
2017-Nov-14 21:30N 51°50' W 008°16'0 0.0
2017-Nov-14 21:00N 51°50' W 008°16'0 0.0
2017-Nov-14 20:30N 51°50' W 008°16'1 2.0
2017-Nov-14 20:00N 51°51' W 008°17'2 3.7
2017-Nov-14 19:28N 51°52' W 008°20'0 0.0
2017-Nov-14 18:58N 51°52' W 008°20'0 0.0
2017-Nov-14 18:28N 51°52' W 008°20'0 0.0
2017-Nov-14 17:59N 51°52' W 008°20'0 0.0
2017-Nov-14 17:28N 51°52' W 008°20'0 0.0
2017-Nov-14 16:58N 51°52' W 008°20'0 0.0
2017-Nov-14 16:28N 51°52' W 008°20'0 0.0
2017-Nov-14 15:58N 51°52' W 008°20'0 0.0
2017-Nov-14 15:28N 51°52' W 008°20'0 0.0
2017-Nov-14 14:58N 51°52' W 008°20'0 0.0
2017-Nov-14 14:28N 51°52' W 008°20'0 0.0
2017-Nov-14 13:58N 51°52' W 008°20'0 0.0
2017-Nov-14 13:28N 51°52' W 008°20'0 0.0
2017-Nov-14 12:58N 51°52' W 008°20'0 0.0
2017-Nov-14 12:28N 51°52' W 008°20'0 0.0
2017-Nov-14 11:58N 51°52' W 008°20'0 0.0
2017-Nov-14 11:28N 51°52' W 008°20'0 0.0
2017-Nov-14 10:58N 51°52' W 008°20'0 0.0
2017-Nov-14 10:28N 51°52' W 008°20'0 0.0
2017-Nov-14 09:58N 51°52' W 008°20'0 0.0
2017-Nov-14 09:28N 51°52' W 008°20'0 0.0
2017-Nov-14 08:58N 51°52' W 008°20'0 0.0
2017-Nov-14 08:28N 51°52' W 008°20'0 0.0
2017-Nov-14 07:58N 51°52' W 008°20'0 0.0
2017-Nov-14 07:28N 51°52' W 008°20'0 0.0
2017-Nov-14 06:58N 51°52' W 008°20'0 0.0
2017-Nov-14 06:28N 51°52' W 008°20'0 0.0
2017-Nov-14 05:58N 51°52' W 008°20'0 0.0
2017-Nov-14 05:28N 51°52' W 008°20'0 0.0
2017-Nov-14 04:58N 51°52' W 008°20'0 0.0
2017-Nov-14 04:28N 51°52' W 008°20'0 0.0
2017-Nov-14 03:58N 51°52' W 008°20'0 0.0
2017-Nov-14 03:28N 51°52' W 008°20'0 0.0
2017-Nov-14 02:58N 51°52' W 008°20'0 0.0
2017-Nov-14 02:28N 51°52' W 008°20'0 0.0
2017-Nov-14 01:58N 51°52' W 008°20'0 0.0
2017-Nov-14 01:28N 51°52' W 008°20'0 0.0
2017-Nov-14 00:58N 51°52' W 008°20'0 0.0
2017-Nov-14 00:28N 51°52' W 008°20'0 0.0
2017-Nov-13 23:58N 51°52' W 008°20'0 0.0
2017-Nov-13 23:28N 51°52' W 008°20'0 0.0
2017-Nov-13 22:58N 51°52' W 008°20'0 0.0
2017-Nov-13 22:28N 51°52' W 008°20'0 0.0
2017-Nov-13 21:58N 51°52' W 008°20'3 0.1
2017-Nov-13 01:59N 51°50' W 008°16'0 0.1
2017-Nov-13 01:29N 51°50' W 008°16'0 0.1
2017-Nov-13 00:59N 51°50' W 008°16'0 0.0
2017-Nov-13 00:29N 51°50' W 008°16'0 0.0
2017-Nov-12 23:59N 51°50' W 008°16'0 0.0
2017-Nov-12 23:29N 51°50' W 008°16'0 0.0
2017-Nov-12 22:59N 51°50' W 008°16'0 0.0
2017-Nov-12 22:29N 51°50' W 008°16'0 0.0
2017-Nov-12 21:59N 51°50' W 008°16'0 0.0
2017-Nov-12 21:29N 51°50' W 008°16'0 0.0
2017-Nov-12 21:00N 51°50' W 008°16'2 3.8
2017-Nov-12 20:30N 51°49' W 008°16'5 9.9
2017-Nov-12 20:01N 51°44' W 008°15'5 9.6
2017-Nov-12 19:31N 51°40' W 008°09'5 9.7
2017-Nov-12 19:00N 51°37' W 008°04'5 9.6
2017-Nov-12 18:31N 51°34' W 007°58'5 9.1
2017-Nov-12 18:00N 51°30' W 007°53'4 8.7
2017-Nov-12 17:30N 51°27' W 007°48'4 8.3
2017-Nov-12 17:00N 51°24' W 007°43'4 8.0
2017-Nov-12 16:30N 51°22' W 007°39'85 6.5
2017-Nov-12 03:28N 50°23' W 006°00'3 7.0
2017-Nov-12 03:01N 50°21' W 005°56'3 6.1
2017-Nov-12 02:30N 50°18' W 005°54'3 6.6
2017-Nov-12 02:00N 50°15' W 005°54'3 6.5
2017-Nov-12 01:28N 50°12' W 005°54'3 7.0
2017-Nov-12 01:00N 50°08' W 005°54'5 6.3
2017-Nov-12 00:16N 50°04' W 005°53'2 6.6
2017-Nov-12 00:00N 50°02' W 005°52'15 5.6
2017-Nov-11 21:24N 49°57' W 005°31'14 6.8
2017-Nov-11 19:21N 49°55' W 005°10'2 6.9
2017-Nov-11 19:00N 49°55' W 005°06'4 7.6
2017-Nov-11 18:29N 49°55' W 004°60'4 7.8
2017-Nov-11 17:56N 49°56' W 004°53'4 8.2
2017-Nov-11 17:30N 49°57' W 004°48'4 8.2
2017-Nov-11 17:01N 49°58' W 004°42'4 8.0
2017-Nov-11 16:31N 49°59' W 004°36'4 7.9
2017-Nov-11 16:01N 49°59' W 004°29'4 7.8
2017-Nov-11 15:31N 49°60' W 004°23'4 7.6
2017-Nov-11 15:00N 50°01' W 004°18'4 7.4
2017-Nov-11 14:29N 50°01' W 004°12'3 7.1
2017-Nov-11 14:00N 50°02' W 004°06'3 6.8
2017-Nov-11 13:31N 50°03' W 004°01'3 6.7
2017-Nov-11 13:00N 50°03' W 003°56'3 6.4
2017-Nov-11 12:30N 50°04' W 003°51'3 6.3
2017-Nov-11 12:00N 50°05' W 003°47'3 5.8
2017-Nov-11 11:31N 50°05' W 003°42'3 5.8
2017-Nov-11 11:00N 50°06' W 003°38'3 5.9
2017-Nov-11 10:30N 50°06' W 003°33'3 6.0
2017-Nov-11 10:00N 50°07' W 003°29'3 5.9
2017-Nov-11 09:30N 50°07' W 003°24'3 6.1
2017-Nov-11 09:00N 50°08' W 003°19'3 6.2
2017-Nov-11 08:30N 50°08' W 003°15'3 6.2
2017-Nov-11 08:00N 50°09' W 003°10'3 6.8
2017-Nov-11 07:30N 50°10' W 003°05'3 7.0
2017-Nov-11 07:00N 50°10' W 002°59'4 7.1
2017-Nov-11 06:31N 50°11' W 002°54'4 7.2
2017-Nov-11 06:00N 50°12' W 002°49'7 6.4
2017-Nov-11 04:58N 50°13' W 002°38'84 7.6
2017-Nov-10 17:57N 50°28' W 000°30'510.6
2017-Nov-10 17:31N 50°29' W 000°22'510.3
2017-Nov-10 17:01N 50°30' W 000°14'5 9.8
2017-Nov-10 16:31N 50°31' W 000°07'5 9.3
2017-Nov-10 16:00N 50°32' E 000°00'4 8.7
2017-Nov-10 15:31N 50°33' E 000°07'4 8.2
2017-Nov-10 15:01N 50°34' E 000°13'4 7.4
2017-Nov-10 14:31N 50°35' E 000°19'4 7.5
2017-Nov-10 14:01N 50°36' E 000°24'4 7.5
2017-Nov-10 13:31N 50°37' E 000°30'4 7.7
2017-Nov-10 13:01N 50°39' E 000°36'4 8.1
2017-Nov-10 12:30N 50°41' E 000°41'4 8.6
2017-Nov-10 12:01N 50°44' E 000°46'5 9.3
2017-Nov-10 11:31N 50°46' E 000°52'5 9.7
2017-Nov-10 11:00N 50°49' E 000°59'710.3
2017-Nov-10 10:19N 50°54' E 001°08'410.5
2017-Nov-10 09:59N 50°56' E 001°12'510.5
2017-Nov-10 09:31N 50°59' E 001°18'510.3
2017-Nov-10 09:01N 51°03' E 001°24'5 9.4
2017-Nov-10 08:30N 51°06' E 001°30'4 8.9
2017-Nov-10 08:01N 51°08' E 001°35'4 8.4
2017-Nov-10 07:30N 51°11' E 001°40'4 8.2
2017-Nov-10 07:01N 51°14' E 001°45'4 8.2
2017-Nov-10 06:30N 51°17' E 001°49'4 7.9
2017-Nov-10 06:00N 51°21' E 001°52'4 8.0
2017-Nov-10 05:30N 51°24' E 001°56'4 8.0
2017-Nov-10 05:01N 51°27' E 002°00'4 8.3
2017-Nov-10 04:30N 51°30' E 002°04'4 8.8
2017-Nov-10 04:00N 51°34' E 002°09'6 9.2
2017-Nov-10 03:22N 51°38' E 002°15'4 9.8
2017-Nov-10 03:00N 51°41' E 002°19'  

Dump ship's entire track history